Time;durP1;ratioP1;P1;durP2;ratioP2;P2;SDS_P1;SDS_P2;PMS_P1;PMS_P2;Temp;Humidity;BMP_temperature;BMP_pressure;BME280_temperature;BME280_humidity;BME280_pressure;Samples;Min_cycle;Max_cycle;Signal;HPM_P1;HPM_P2
2023/03/31 00:00:52;;;;;;;28.45;5.55;;;10.50;99.90;;;;;;5004205;28;20041;-89
2023/03/31 00:03:20;;;;;;;23.65;5.07;;;10.50;99.90;;;;;;5000300;28;20072;-89
2023/03/31 00:05:55;;;;;;;30.15;5.60;;;10.50;99.90;;;;;;5002613;28;20037;-89
2023/03/31 00:08:20;;;;;;;30.58;5.78;;;10.50;99.90;;;;;;5005974;28;20562;-89
2023/03/31 00:10:49;;;;;;;24.00;5.60;;;10.60;99.90;;;;;;5024492;28;20357;-90
2023/03/31 00:13:15;;;;;;;27.52;5.25;;;10.60;99.90;;;;;;5005930;28;20037;-88
2023/03/31 00:15:41;;;;;;;31.45;5.28;;;10.70;99.90;;;;;;5024762;28;20088;-89
2023/03/31 00:18:07;;;;;;;22.88;5.60;;;10.70;99.90;;;;;;5033935;28;20121;-89
2023/03/31 00:20:36;;;;;;;21.30;5.22;;;10.60;99.90;;;;;;5020098;28;20052;-89
2023/03/31 00:23:05;;;;;;;31.13;5.45;;;10.60;99.90;;;;;;5005830;28;20030;-89
2023/03/31 00:25:31;;;;;;;26.10;5.03;;;10.70;99.90;;;;;;5003602;28;20133;-89
2023/03/31 00:27:56;;;;;;;25.33;5.03;;;10.60;99.90;;;;;;5021994;28;20534;-89
2023/03/31 00:30:22;;;;;;;29.23;6.13;;;10.70;99.90;;;;;;5006999;28;20029;-89
2023/03/31 00:32:50;;;;;;;33.88;5.65;;;10.60;99.90;;;;;;5018586;28;20049;-89
2023/03/31 00:35:16;;;;;;;26.60;5.03;;;10.60;99.90;;;;;;5017636;28;20128;-90
2023/03/31 00:37:42;;;;;;;32.20;6.10;;;10.60;99.90;;;;;;5022087;28;20136;-90
2023/03/31 00:40:08;;;;;;;26.40;5.53;;;10.60;99.90;;;;;;5023585;28;20048;-89
2023/03/31 00:42:40;;;;;;;31.88;6.68;;;10.60;99.90;;;;;;5036177;28;20546;-89
2023/03/31 00:45:15;;;;;;;25.08;5.25;;;10.60;99.90;;;;;;5006662;28;20068;-89
2023/03/31 00:47:44;;;;;;;26.42;4.85;;;10.50;99.90;;;;;;5002357;28;20037;-89
2023/03/31 00:50:24;;;;;;;25.35;5.53;;;10.70;99.90;;;;;;5005645;28;20036;-89
2023/03/31 00:52:58;;;;;;;29.33;5.18;;;10.50;99.90;;;;;;5001580;28;20128;-89
2023/03/31 00:55:30;;;;;;;24.75;4.78;;;10.60;99.90;;;;;;5030996;28;20505;-89
2023/03/31 00:57:56;;;;;;;30.45;6.03;;;10.50;99.90;;;;;;5006753;28;20251;-89
2023/03/31 01:00:22;;;;;;;24.55;4.65;;;10.40;99.90;;;;;;5003709;28;20501;-89
2023/03/31 01:02:58;;;;;;;23.45;4.57;;;10.40;99.90;;;;;;5003781;28;20087;-88
2023/03/31 01:05:35;;;;;;;28.83;5.18;;;10.40;99.90;;;;;;5004657;28;20041;-89
2023/03/31 01:08:04;;;;;;;23.30;5.40;;;10.40;99.90;;;;;;5018413;28;20037;-89
2023/03/31 01:10:37;;;;;;;24.25;5.00;;;10.20;99.90;;;;;;5005212;28;20059;-89
2023/03/31 01:13:03;;;;;;;21.88;4.45;;;10.10;99.90;;;;;;5004587;28;20040;-89
2023/03/31 01:15:32;;;;;;;23.55;5.20;;;10.10;99.90;;;;;;5003147;28;20033;-89
2023/03/31 01:17:58;;;;;;;25.73;5.30;;;10.00;99.90;;;;;;5019201;28;20051;-89
2023/03/31 01:20:49;;;;;;;24.60;4.38;;;10.00;99.90;;;;;;5004587;28;20049;-89
2023/03/31 01:24:02;;;;;;;17.02;4.57;;;10.00;99.90;;;;;;5005291;28;20045;-89
2023/03/31 01:26:28;;;;;;;23.75;4.85;;;9.90;99.90;;;;;;4946458;28;20060;-89
2023/03/31 01:29:19;;;;;;;28.23;5.40;;;9.90;99.90;;;;;;5047730;28;20113;-88
2023/03/31 01:32:00;;;;;;;22.98;4.93;;;9.80;99.90;;;;;;5004319;28;20400;-88
2023/03/31 01:34:29;;;;;;;23.52;4.70;;;9.80;99.90;;;;;;5005504;28;20049;-89
2023/03/31 01:36:56;;;;;;;21.52;4.90;;;9.80;99.90;;;;;;5021239;28;20064;-89
2023/03/31 01:39:39;;;;;;;20.20;4.53;;;9.70;99.90;;;;;;5019675;28;20524;-89
2023/03/31 01:42:45;;;;;;;21.83;4.70;;;9.70;99.90;;;;;;5004251;28;20047;-90
2023/03/31 01:45:18;;;;;;;23.67;4.22;;;9.70;99.90;;;;;;4965146;28;20085;-89
2023/03/31 01:47:46;;;;;;;25.35;5.03;;;9.80;99.90;;;;;;5010508;28;20045;-89
2023/03/31 01:50:23;;;;;;;20.15;4.15;;;9.70;99.90;;;;;;5003628;28;20128;-89
2023/03/31 01:53:05;;;;;;;24.52;5.07;;;9.70;99.90;;;;;;5021046;28;20034;-88
2023/03/31 01:55:44;;;;;;;22.40;4.60;;;9.70;99.90;;;;;;5004246;28;20041;-89
2023/03/31 01:58:10;;;;;;;20.48;3.97;;;9.80;99.90;;;;;;5006227;28;20418;-89
2023/03/31 02:00:43;;;;;;;26.38;5.32;;;9.80;99.90;;;;;;5020591;28;20059;-89
2023/03/31 02:03:20;;;;;;;22.35;4.85;;;9.80;99.90;;;;;;5005149;28;20158;-89
2023/03/31 02:05:56;;;;;;;24.67;4.55;;;9.80;99.90;;;;;;5005019;28;20513;-89
2023/03/31 02:08:44;;;;;;;18.60;3.97;;;9.80;99.90;;;;;;5017644;28;20390;-89
2023/03/31 02:11:10;;;;;;;19.63;3.97;;;9.80;99.90;;;;;;5003647;28;20060;-89
2023/03/31 02:13:40;;;;;;;22.52;4.03;;;9.80;99.90;;;;;;5023468;28;20069;-89
2023/03/31 02:16:10;;;;;;;20.67;4.47;;;9.90;99.90;;;;;;5008485;28;20133;-88
2023/03/31 02:18:40;;;;;;;22.60;4.53;;;9.80;99.90;;;;;;5003290;28;20082;-89
2023/03/31 02:21:12;;;;;;;22.65;4.40;;;9.80;99.90;;;;;;5005649;28;20042;-89
2023/03/31 02:23:38;;;;;;;21.88;4.57;;;9.90;99.90;;;;;;5001567;28;20040;-89
2023/03/31 02:26:19;;;;;;;20.55;4.07;;;9.80;99.90;;;;;;5031907;28;21583;-89
2023/03/31 02:28:45;;;;;;;26.10;4.55;;;9.80;99.90;;;;;;5032378;28;20030;-89
2023/03/31 02:31:36;;;;;;;25.67;4.53;;;9.80;99.90;;;;;;5023186;28;20774;-89
2023/03/31 02:34:02;;;;;;;24.73;4.00;;;9.80;99.90;;;;;;5024287;28;20045;-89
2023/03/31 02:36:28;;;;;;;18.08;4.30;;;9.80;99.90;;;;;;5006159;28;20077;-89
2023/03/31 02:38:59;;;;;;;22.75;4.45;;;9.90;99.90;;;;;;5019315;28;20045;-89
2023/03/31 02:41:25;;;;;;;18.38;4.20;;;9.90;99.90;;;;;;5029107;28;20045;-89
2023/03/31 02:43:51;;;;;;;21.80;4.75;;;9.90;99.90;;;;;;5003314;28;20068;-89
2023/03/31 02:46:16;;;;;;;23.05;4.65;;;10.00;99.90;;;;;;5035052;28;20029;-89
2023/03/31 02:48:47;;;;;;;20.60;4.28;;;10.00;99.90;;;;;;5004562;28;20413;-88
2023/03/31 02:51:21;;;;;;;20.67;4.50;;;10.00;99.90;;;;;;5016843;28;20042;-89
2023/03/31 02:54:30;;;;;;;21.63;4.47;;;10.00;99.90;;;;;;5001906;28;20124;-89
2023/03/31 02:57:14;;;;;;;16.77;4.30;;;10.00;99.90;;;;;;5004276;28;20189;-90
2023/03/31 03:00:06;;;;;;;29.02;4.95;;;10.00;99.90;;;;;;5017290;28;20095;-89
2023/03/31 03:03:10;;;;;;;18.20;4.22;;;10.00;99.90;;;;;;5004543;28;20037;-89
2023/03/31 03:05:52;;;;;;;22.15;4.22;;;10.00;99.90;;;;;;5033157;28;20037;-89
2023/03/31 03:08:33;;;;;;;22.55;4.97;;;9.90;99.90;;;;;;5002608;28;20041;-89
2023/03/31 03:11:05;;;;;;;18.15;4.65;;;9.90;99.90;;;;;;5020108;28;20204;-89
2023/03/31 03:14:06;;;;;;;17.42;4.18;;;9.80;99.90;;;;;;5022727;28;20056;-89
2023/03/31 03:16:50;;;;;;;17.90;3.85;;;9.80;99.90;;;;;;5000175;28;20034;-89
2023/03/31 03:19:21;;;;;;;19.07;4.73;;;9.80;99.90;;;;;;5022595;28;20072;-89
2023/03/31 03:21:47;;;;;;;17.45;4.55;;;9.80;99.90;;;;;;5019552;28;20141;-89
2023/03/31 03:24:16;;;;;;;19.58;4.78;;;9.80;99.90;;;;;;5006789;28;20053;-89
2023/03/31 03:26:45;;;;;;;16.38;4.30;;;9.80;99.90;;;;;;5016713;28;20052;-88
2023/03/31 03:29:14;;;;;;;19.58;4.10;;;9.90;99.90;;;;;;5002933;28;20029;-89
2023/03/31 03:31:41;;;;;;;21.83;4.60;;;9.80;99.90;;;;;;5018610;28;20399;-89
2023/03/31 03:34:08;;;;;;;19.20;5.13;;;9.90;99.90;;;;;;5003005;28;20132;-89
2023/03/31 03:36:36;;;;;;;16.02;4.57;;;9.90;99.90;;;;;;5000412;28;20050;-89
2023/03/31 03:39:03;;;;;;;15.95;3.72;;;9.90;99.90;;;;;;5001906;28;20132;-89
2023/03/31 03:41:28;;;;;;;17.83;4.35;;;9.90;99.90;;;;;;5002514;28;20864;-89
2023/03/31 03:43:54;;;;;;;16.70;4.78;;;9.90;99.90;;;;;;5018904;28;20166;-89
2023/03/31 03:46:20;;;;;;;16.83;4.30;;;10.00;99.90;;;;;;5004926;28;20419;-89
2023/03/31 03:48:46;;;;;;;18.52;4.63;;;10.00;99.90;;;;;;5002036;28;20045;-90
2023/03/31 03:51:11;;;;;;;17.67;4.47;;;10.00;99.90;;;;;;5005654;28;20120;-89
2023/03/31 03:53:37;;;;;;;21.95;4.55;;;10.10;99.90;;;;;;5003429;28;20077;-89
2023/03/31 03:56:03;;;;;;;12.65;5.03;;;10.10;99.90;;;;;;5046022;28;20183;-89
2023/03/31 03:58:28;;;;;;;16.70;6.03;;;10.10;99.90;;;;;;5002253;28;20038;-89
2023/03/31 04:00:55;;;;;;;14.43;4.97;;;10.20;99.90;;;;;;5016236;28;20099;-88
2023/03/31 04:03:21;;;;;;;19.48;5.45;;;10.20;99.90;;;;;;5020120;28;20041;-89
2023/03/31 04:05:50;;;;;;;14.63;5.28;;;10.20;99.90;;;;;;4998616;28;20490;-88
2023/03/31 04:08:18;;;;;;;14.68;5.90;;;10.30;99.90;;;;;;5015071;28;20041;-89
2023/03/31 04:10:48;;;;;;;13.60;5.75;;;10.20;99.90;;;;;;5045180;28;20068;-88
2023/03/31 04:13:18;;;;;;;12.48;5.28;;;10.30;99.90;;;;;;5019108;28;20034;-89
2023/03/31 04:15:44;;;;;;;16.80;6.00;;;10.30;99.90;;;;;;5000675;28;20506;-89
2023/03/31 04:18:21;;;;;;;17.00;5.57;;;10.40;99.90;;;;;;5023622;28;20048;-89
2023/03/31 04:20:53;;;;;;;17.98;6.38;;;10.40;99.90;;;;;;5021099;28;20048;-89
2023/03/31 04:23:22;;;;;;;15.52;6.88;;;10.30;99.90;;;;;;5042913;28;20510;-90
2023/03/31 04:25:49;;;;;;;15.43;6.28;;;10.40;99.90;;;;;;5019353;28;20373;-90
2023/03/31 04:28:15;;;;;;;19.13;6.55;;;10.50;99.90;;;;;;5004758;28;20033;-90
2023/03/31 04:30:42;;;;;;;17.08;6.68;;;10.50;99.90;;;;;;5029396;28;20449;-89
2023/03/31 04:33:08;;;;;;;16.00;6.57;;;10.50;99.90;;;;;;5000873;28;20125;-89
2023/03/31 04:35:48;;;;;;;19.10;7.40;;;10.50;99.90;;;;;;5018697;28;20141;-89
2023/03/31 04:38:18;;;;;;;14.88;7.65;;;10.40;99.90;;;;;;4996948;28;20044;-90
2023/03/31 04:40:49;;;;;;;16.58;7.28;;;10.50;99.90;;;;;;5003043;28;20053;-90
2023/03/31 04:43:19;;;;;;;20.52;7.68;;;10.50;99.90;;;;;;5001233;28;20526;-90
2023/03/31 04:45:46;;;;;;;23.48;8.15;;;10.50;99.90;;;;;;4986105;28;20119;-89
2023/03/31 04:48:12;;;;;;;17.52;7.82;;;10.50;99.90;;;;;;5018920;28;20303;-89
2023/03/31 04:50:45;;;;;;;19.85;7.63;;;10.50;99.90;;;;;;5001385;28;20507;-90
2023/03/31 04:53:10;;;;;;;19.05;8.02;;;10.50;99.90;;;;;;5046103;28;20046;-90
2023/03/31 04:55:36;;;;;;;17.20;8.52;;;10.50;99.90;;;;;;5021146;28;20356;-88
2023/03/31 04:58:02;;;;;;;25.50;8.63;;;10.60;99.90;;;;;;5003523;28;20041;-89
2023/03/31 05:00:28;;;;;;;20.75;8.20;;;10.60;99.90;;;;;;5006204;28;20095;-89
2023/03/31 05:02:54;;;;;;;20.05;8.30;;;10.60;99.90;;;;;;5005498;28;20106;-89
2023/03/31 05:05:23;;;;;;;20.65;8.43;;;10.70;99.90;;;;;;5004493;28;20081;-89
2023/03/31 05:07:49;;;;;;;18.13;8.07;;;10.60;99.90;;;;;;5018308;28;20042;-89
2023/03/31 05:10:17;;;;;;;22.17;8.25;;;10.60;99.90;;;;;;5028789;28;20557;-89
2023/03/31 05:12:43;;;;;;;20.15;8.52;;;10.70;99.90;;;;;;5005850;28;20041;-89
2023/03/31 05:15:09;;;;;;;19.00;8.25;;;10.60;99.90;;;;;;5004522;28;20045;-88
2023/03/31 05:17:35;;;;;;;19.33;7.57;;;10.70;99.90;;;;;;5021175;28;20124;-89
2023/03/31 05:20:05;;;;;;;20.95;8.10;;;10.70;99.90;;;;;;5003242;28;20470;-89
2023/03/31 05:22:34;;;;;;;21.30;7.70;;;10.70;99.90;;;;;;5002889;28;20506;-89
2023/03/31 05:25:00;;;;;;;18.73;6.90;;;10.70;99.90;;;;;;5014178;28;20073;-89
2023/03/31 05:27:25;;;;;;;15.43;6.53;;;10.70;99.90;;;;;;5006878;28;20295;-89
2023/03/31 05:29:51;;;;;;;17.15;6.50;;;10.70;99.90;;;;;;5020853;28;20036;-89
2023/03/31 05:32:20;;;;;;;20.92;7.10;;;10.80;99.90;;;;;;5021622;28;20593;-90
2023/03/31 05:34:51;;;;;;;16.00;6.10;;;10.70;99.90;;;;;;5030614;28;20780;-89
2023/03/31 05:37:19;;;;;;;18.05;6.55;;;10.80;99.90;;;;;;5000476;28;20107;-89
2023/03/31 05:39:45;;;;;;;17.83;6.15;;;10.70;99.90;;;;;;5031401;28;20345;-89
2023/03/31 05:42:11;;;;;;;15.95;6.30;;;10.80;99.90;;;;;;5004412;28;20049;-89
2023/03/31 05:44:36;;;;;;;15.63;6.47;;;10.80;99.90;;;;;;5003539;28;20143;-89
2023/03/31 05:47:02;;;;;;;19.30;6.30;;;10.80;99.90;;;;;;5017894;28;20454;-89
2023/03/31 05:49:28;;;;;;;13.85;5.75;;;10.90;99.90;;;;;;5017961;28;20514;-89
2023/03/31 05:51:54;;;;;;;17.95;5.47;;;10.80;99.90;;;;;;5001962;28;20071;-89
2023/03/31 05:54:21;;;;;;;14.45;5.55;;;10.80;99.90;;;;;;5017197;28;20049;-89
2023/03/31 05:56:47;;;;;;;16.88;6.18;;;10.90;99.90;;;;;;5021064;28;20033;-89
2023/03/31 05:59:13;;;;;;;14.75;6.00;;;10.90;99.90;;;;;;5018601;28;20582;-89
2023/03/31 06:01:39;;;;;;;11.82;5.50;;;10.90;99.90;;;;;;5019245;28;20076;-89
2023/03/31 06:04:05;;;;;;;13.98;5.65;;;10.90;99.90;;;;;;5017874;28;20422;-89
2023/03/31 06:06:33;;;;;;;11.75;5.68;;;10.90;99.90;;;;;;5002827;28;20038;-89
2023/03/31 06:08:59;;;;;;;14.80;5.70;;;10.90;99.90;;;;;;5022517;28;20532;-90
2023/03/31 06:11:25;;;;;;;15.02;5.65;;;10.80;99.90;;;;;;5021488;28;20135;-89
2023/03/31 06:13:51;;;;;;;15.02;5.90;;;10.90;99.90;;;;;;5019562;28;20480;-90
2023/03/31 06:16:18;;;;;;;13.98;5.68;;;10.90;99.90;;;;;;5006691;28;20128;-89
2023/03/31 06:18:44;;;;;;;13.45;5.40;;;10.90;99.90;;;;;;5019684;28;20163;-90
2023/03/31 06:21:15;;;;;;;15.25;5.65;;;10.90;99.90;;;;;;5003547;28;20037;-90
2023/03/31 06:23:43;;;;;;;12.38;5.85;;;10.90;99.90;;;;;;5003805;28;20033;-90
2023/03/31 06:26:18;;;;;;;13.50;5.70;;;11.00;99.90;;;;;;5000039;28;20450;-90
2023/03/31 06:28:45;;;;;;;12.30;5.78;;;11.00;99.90;;;;;;5004356;28;20120;-90
2023/03/31 06:31:19;;;;;;;13.93;4.95;;;11.00;99.90;;;;;;5001151;28;20037;-89
2023/03/31 06:33:46;;;;;;;16.70;5.72;;;11.00;99.90;;;;;;5018117;28;20052;-89
2023/03/31 06:36:14;;;;;;;9.75;5.03;;;11.00;99.90;;;;;;5003078;28;20046;-90
2023/03/31 06:38:43;;;;;;;11.48;5.55;;;11.00;99.90;;;;;;5001146;28;20038;-89
2023/03/31 06:41:12;;;;;;;11.95;4.88;;;11.00;99.90;;;;;;5001902;28;20813;-89
2023/03/31 06:43:38;;;;;;;10.50;5.30;;;11.00;99.90;;;;;;5041683;28;20069;-89
2023/03/31 06:46:04;;;;;;;14.20;5.40;;;11.00;99.90;;;;;;5003055;28;20192;-89
2023/03/31 06:48:30;;;;;;;11.02;5.45;;;11.00;99.90;;;;;;5017485;28;20274;-89
2023/03/31 06:50:58;;;;;;;11.48;5.32;;;11.00;99.90;;;;;;5001238;28;20207;-89
2023/03/31 06:53:24;;;;;;;10.82;5.07;;;11.10;99.90;;;;;;5005729;28;20033;-89
2023/03/31 06:55:50;;;;;;;10.25;4.70;;;11.10;99.90;;;;;;5002552;28;20502;-89
2023/03/31 06:58:16;;;;;;;13.25;5.00;;;11.10;99.90;;;;;;5030224;28;20045;-90
2023/03/31 07:00:44;;;;;;;16.20;5.15;;;11.10;99.90;;;;;;5004722;28;20045;-89
2023/03/31 07:03:09;;;;;;;9.32;5.05;;;11.10;99.90;;;;;;5013985;28;20529;-90
2023/03/31 07:05:35;;;;;;;11.82;5.18;;;11.10;99.90;;;;;;5005464;28;20037;-89
2023/03/31 07:08:05;;;;;;;11.88;5.13;;;11.10;99.90;;;;;;5043755;28;20045;-88
2023/03/31 07:10:31;;;;;;;11.07;4.80;;;11.10;99.90;;;;;;5019749;28;20478;-90
2023/03/31 07:12:58;;;;;;;9.88;4.55;;;11.20;99.90;;;;;;4999988;28;20045;-90
2023/03/31 07:15:25;;;;;;;9.55;4.50;;;11.20;99.90;;;;;;5017023;28;20036;-89
2023/03/31 07:17:52;;;;;;;9.85;4.50;;;11.20;99.90;;;;;;5019938;28;20045;-89
2023/03/31 07:20:21;;;;;;;9.60;4.45;;;11.20;99.90;;;;;;5019379;28;20041;-89
2023/03/31 07:22:48;;;;;;;7.90;4.18;;;11.20;99.90;;;;;;5027487;28;20367;-89
2023/03/31 07:25:17;;;;;;;11.55;4.20;;;11.20;99.90;;;;;;5001504;28;20034;-90
2023/03/31 07:27:43;;;;;;;11.82;3.90;;;11.30;99.90;;;;;;5002861;28;20117;-90
2023/03/31 07:30:15;;;;;;;8.13;3.95;;;11.30;99.90;;;;;;5007504;28;20076;-89
2023/03/31 07:32:41;;;;;;;8.60;4.28;;;11.30;99.90;;;;;;5044658;28;20322;-89
2023/03/31 07:35:07;;;;;;;9.82;4.20;;;11.20;99.90;;;;;;5004189;28;20080;-89
2023/03/31 07:37:38;;;;;;;10.80;4.50;;;11.20;99.90;;;;;;5017722;28;20106;-89
2023/03/31 07:40:05;;;;;;;9.65;5.05;;;11.30;99.90;;;;;;5019505;28;20051;-90
2023/03/31 07:42:32;;;;;;;10.23;5.03;;;11.20;99.90;;;;;;5016970;28;20053;-89
2023/03/31 07:44:57;;;;;;;12.55;4.45;;;11.20;99.90;;;;;;5004132;28;20133;-90
2023/03/31 07:47:23;;;;;;;10.70;4.50;;;11.20;99.90;;;;;;5000875;28;20116;-89
2023/03/31 07:49:49;;;;;;;8.15;4.05;;;11.10;99.90;;;;;;5018601;28;20075;-90
2023/03/31 07:52:16;;;;;;;7.47;3.72;;;11.00;99.90;;;;;;5003288;28;20040;-89
2023/03/31 07:54:45;;;;;;;8.38;3.55;;;11.10;99.90;;;;;;5003330;28;20084;-89
2023/03/31 07:57:11;;;;;;;7.72;3.13;;;11.10;99.90;;;;;;5003750;28;20042;-89
2023/03/31 07:59:37;;;;;;;7.05;3.10;;;11.10;99.90;;;;;;5001209;28;20041;-90
2023/03/31 08:02:02;;;;;;;8.98;3.35;;;11.10;99.90;;;;;;5004641;28;20033;-89
2023/03/31 08:04:28;;;;;;;6.57;3.30;;;11.10;99.90;;;;;;5004582;28;20120;-89
2023/03/31 08:06:55;;;;;;;7.88;3.28;;;11.10;99.90;;;;;;5016626;28;20042;-89
2023/03/31 08:09:21;;;;;;;9.45;3.83;;;11.20;99.90;;;;;;5001961;28;20084;-90
2023/03/31 08:11:47;;;;;;;10.65;3.33;;;11.10;99.90;;;;;;5032445;28;20176;-88
2023/03/31 08:14:13;;;;;;;9.38;3.50;;;11.20;99.90;;;;;;5016872;28;20426;-89
2023/03/31 08:16:39;;;;;;;9.55;3.20;;;11.20;99.90;;;;;;5006384;28;20037;-89
2023/03/31 08:19:05;;;;;;;7.50;3.20;;;11.20;99.90;;;;;;5017903;28;20095;-90
2023/03/31 08:21:31;;;;;;;10.50;3.67;;;11.30;99.90;;;;;;5047715;28;20103;-89
2023/03/31 08:23:57;;;;;;;7.50;3.20;;;11.30;99.90;;;;;;5040120;28;20506;-90
2023/03/31 08:26:24;;;;;;;7.45;3.95;;;11.40;99.90;;;;;;5031984;28;20365;-89
2023/03/31 08:28:51;;;;;;;9.43;3.60;;;11.40;99.90;;;;;;5021996;28;20123;-89
2023/03/31 08:31:19;;;;;;;9.82;3.63;;;11.40;99.90;;;;;;5007839;28;20041;-90
2023/03/31 08:33:45;;;;;;;10.98;4.15;;;11.50;99.90;;;;;;5031529;28;20116;-89
2023/03/31 08:36:11;;;;;;;9.93;3.97;;;11.50;99.90;;;;;;5003821;28;20055;-89
2023/03/31 08:38:44;;;;;;;9.13;3.97;;;11.50;99.90;;;;;;5003789;28;20916;-89
2023/03/31 08:41:45;;;;;;;9.90;4.10;;;11.60;99.90;;;;;;5005363;28;20025;-90
2023/03/31 08:44:23;;;;;;;12.43;4.43;;;11.60;99.90;;;;;;5005207;28;20096;-90
2023/03/31 08:46:53;;;;;;;11.60;4.75;;;11.60;99.90;;;;;;5021283;28;20450;-89
2023/03/31 08:49:21;;;;;;;10.82;4.90;;;11.60;99.90;;;;;;5022182;28;20171;-90
2023/03/31 08:51:53;;;;;;;9.65;4.53;;;11.60;99.90;;;;;;5005180;28;20108;-89
2023/03/31 08:54:43;;;;;;;10.73;4.53;;;11.60;99.90;;;;;;5045393;28;20041;-90
2023/03/31 08:57:18;;;;;;;8.80;4.60;;;11.70;99.90;;;;;;5036856;28;20468;-90
2023/03/31 08:59:48;;;;;;;12.10;4.40;;;11.70;99.90;;;;;;5003770;28;20042;-90
2023/03/31 09:02:48;;;;;;;10.07;4.45;;;11.60;99.90;;;;;;5009323;28;20111;-89
2023/03/31 09:05:32;;;;;;;10.70;4.18;;;11.60;99.90;;;;;;5020636;28;20045;-89
2023/03/31 09:08:32;;;;;;;13.68;4.82;;;11.70;99.90;;;;;;5026772;28;20038;-90
2023/03/31 09:11:02;;;;;;;8.25;3.70;;;11.70;99.90;;;;;;5021461;28;20637;-90
2023/03/31 09:14:06;;;;;;;13.07;4.80;;;11.70;99.90;;;;;;5007686;28;20034;-90
2023/03/31 09:16:42;;;;;;;11.25;4.43;;;11.70;99.90;;;;;;5001467;28;20056;-90
2023/03/31 09:19:18;;;;;;;11.10;4.05;;;11.70;99.90;;;;;;5004709;28;20041;-90
2023/03/31 09:21:50;;;;;;;12.07;4.25;;;11.70;99.90;;;;;;5002422;28;20030;-89
2023/03/31 09:24:30;;;;;;;11.82;4.60;;;11.70;99.90;;;;;;5019703;28;20204;-90
2023/03/31 09:27:05;;;;;;;12.65;4.15;;;11.80;99.90;;;;;;5020294;28;20116;-89
2023/03/31 09:29:42;;;;;;;;;;;11.80;99.90;;;;;;5005603;28;20042;-90
2023/03/31 09:32:22;;;;;;;10.90;4.45;;;11.80;99.90;;;;;;5028192;28;20016;-90
2023/03/31 09:34:52;;;;;;;11.73;4.30;;;11.90;99.90;;;;;;5006319;28;20042;-89
2023/03/31 09:37:18;;;;;;;10.93;4.40;;;11.90;99.90;;;;;;5002493;28;20057;-89
2023/03/31 09:39:44;;;;;;;9.75;4.40;;;11.90;99.90;;;;;;5005099;28;20041;-88
2023/03/31 09:42:14;;;;;;;10.30;4.63;;;12.00;99.90;;;;;;5001140;28;20061;-89
2023/03/31 09:44:48;;;;;;;8.82;4.40;;;12.00;99.90;;;;;;5005339;28;20051;-89
2023/03/31 09:47:31;;;;;;;11.02;4.63;;;12.10;99.90;;;;;;5005124;28;20644;-89
2023/03/31 09:49:57;;;;;;;11.73;5.03;;;12.30;99.90;;;;;;5004001;28;20203;-89
2023/03/31 09:52:31;;;;;;;12.30;4.50;;;12.30;99.90;;;;;;5024661;28;20155;-89
2023/03/31 09:55:00;;;;;;;10.50;5.20;;;12.40;99.90;;;;;;5043428;28;20049;-89
2023/03/31 09:57:37;;;;;;;9.77;4.88;;;12.50;99.90;;;;;;5039591;28;20124;-89
2023/03/31 10:00:22;;;;;;;10.02;4.22;;;12.60;99.90;;;;;;5006163;28;20122;-89
2023/03/31 10:02:50;;;;;;;8.55;3.80;;;12.60;99.90;;;;;;5003968;28;20084;-89
2023/03/31 10:05:28;;;;;;;11.40;4.30;;;12.70;99.90;;;;;;5004644;28;20463;-89
2023/03/31 10:08:17;;;;;;;7.65;3.75;;;12.60;99.90;;;;;;5007481;28;20180;-89
2023/03/31 10:11:10;;;;;;;6.03;3.55;;;12.40;99.90;;;;;;5032309;28;20049;-89
2023/03/31 10:13:47;;;;;;;7.60;3.63;;;12.30;99.90;;;;;;5005897;28;20043;-89
2023/03/31 10:16:21;;;;;;;8.93;3.95;;;12.20;99.90;;;;;;5001339;28;20083;-89
2023/03/31 10:18:48;;;;;;;8.00;3.70;;;12.40;99.90;;;;;;5005885;28;20498;-89
2023/03/31 10:21:24;;;;;;;6.75;3.50;;;12.50;99.90;;;;;;5017752;28;20626;-89
2023/03/31 10:23:50;;;;;;;7.57;3.15;;;12.60;99.90;;;;;;5018449;28;20083;-89
2023/03/31 10:26:20;;;;;;;6.90;3.00;;;12.60;99.90;;;;;;5007313;28;20033;-89
2023/03/31 10:28:51;;;;;;;7.65;3.08;;;12.60;99.90;;;;;;5001954;28;20494;-90
2023/03/31 10:31:18;;;;;;;4.50;2.50;;;12.70;99.90;;;;;;5038362;28;20064;-89
2023/03/31 10:33:47;;;;;;;5.85;2.70;;;12.50;99.90;;;;;;5019212;28;20041;-89
2023/03/31 10:36:27;;;;;;;5.97;2.83;;;12.60;99.90;;;;;;5018787;28;20358;-89
2023/03/31 10:38:53;;;;;;;8.30;2.50;;;12.60;99.90;;;;;;5000829;28;20436;-89
2023/03/31 10:41:26;;;;;;;5.97;2.05;;;12.70;99.90;;;;;;5005793;28;20144;-89
2023/03/31 10:43:56;;;;;;;5.25;2.30;;;12.50;99.90;;;;;;5007526;28;20041;-89
2023/03/31 10:46:51;;;;;;;5.28;2.20;;;12.90;99.90;;;;;;5022162;28;20033;-89
2023/03/31 10:49:20;;;;;;;5.17;2.50;;;13.10;99.90;;;;;;5016242;28;20033;-89
2023/03/31 10:51:56;;;;;;;3.90;2.10;;;13.30;99.90;;;;;;5003018;28;20038;-89
2023/03/31 10:54:22;;;;;;;6.30;2.45;;;13.60;99.90;;;;;;5000670;28;20164;-89
2023/03/31 10:56:51;;;;;;;6.35;2.80;;;13.90;99.90;;;;;;5036544;28;20033;-89
2023/03/31 10:59:23;;;;;;;6.38;2.47;;;14.10;99.90;;;;;;5005668;28;20110;-89
2023/03/31 11:02:03;;;;;;;9.20;2.50;;;14.30;99.90;;;;;;5020726;28;20047;-89
2023/03/31 11:05:07;;;;;;;8.20;2.60;;;14.50;99.90;;;;;;5019492;28;20076;-89
2023/03/31 11:08:10;;;;;;;6.57;2.58;;;14.20;99.90;;;;;;5002992;28;20273;-89
2023/03/31 11:11:02;;;;;;;5.97;2.88;;;14.30;99.90;;;;;;5004999;28;20037;-89
2023/03/31 11:13:32;;;;;;;7.70;3.10;;;14.30;99.90;;;;;;5004612;28;20072;-89
2023/03/31 11:16:27;;;;;;;6.05;2.70;;;14.50;99.90;;;;;;5003340;28;20471;-89
2023/03/31 11:18:58;;;;;;;5.32;2.38;;;14.50;99.90;;;;;;5001896;28;20255;-89
2023/03/31 11:21:27;;;;;;;6.78;2.90;;;14.50;99.90;;;;;;5001972;28;20176;-89
2023/03/31 11:24:23;;;;;;;4.93;2.53;;;14.40;99.90;;;;;;5032450;28;20049;-89
2023/03/31 11:27:15;;;;;;;6.28;2.60;;;14.50;99.90;;;;;;5006409;28;20103;-89
2023/03/31 11:30:03;;;;;;;5.85;2.03;;;14.50;99.90;;;;;;5020503;28;20447;-88
2023/03/31 11:32:47;;;;;;;4.72;2.33;;;15.10;99.90;;;;;;5000804;28;20038;-89
2023/03/31 11:35:20;;;;;;;6.85;2.83;;;15.60;99.90;;;;;;5001326;28;20100;-89
2023/03/31 11:38:23;;;;;;;5.15;2.40;;;15.60;99.90;;;;;;5035903;28;20045;-88
2023/03/31 11:41:08;;;;;;;6.00;2.00;;;15.00;99.90;;;;;;5000805;28;20738;-89
2023/03/31 11:43:51;;;;;;;5.38;2.40;;;14.60;99.90;;;;;;5002420;28;20569;-88
2023/03/31 11:46:25;;;;;;;5.78;2.22;;;14.30;99.90;;;;;;5002553;28;20131;-89
2023/03/31 11:48:51;;;;;;;7.85;2.33;;;14.00;99.90;;;;;;5000062;28;20510;-90
2023/03/31 11:51:25;;;;;;;5.38;2.47;;;13.90;99.90;;;;;;5002798;28;20318;-89
2023/03/31 11:53:53;;;;;;;4.70;1.97;;;13.90;99.90;;;;;;5004113;28;20126;-90
2023/03/31 11:56:20;;;;;;;5.00;2.20;;;14.00;99.90;;;;;;5018074;28;20521;-89
2023/03/31 11:58:55;;;;;;;6.60;2.30;;;14.20;99.90;;;;;;5018943;28;20312;-90
2023/03/31 12:01:28;;;;;;;4.03;2.10;;;14.50;99.90;;;;;;5005041;28;20098;-90
2023/03/31 12:03:59;;;;;;;3.80;1.80;;;14.30;99.90;;;;;;5019006;28;20037;-89
2023/03/31 12:06:32;;;;;;;4.53;2.05;;;14.30;99.90;;;;;;5017629;28;20288;-89
2023/03/31 12:09:13;;;;;;;6.20;2.13;;;14.20;99.90;;;;;;5003765;28;20391;-89
2023/03/31 12:11:49;;;;;;;6.32;2.20;;;14.20;99.90;;;;;;5002564;28;20049;-89
2023/03/31 12:14:21;;;;;;;7.05;2.60;;;14.50;99.90;;;;;;4998719;28;20061;-89
2023/03/31 12:16:51;;;;;;;5.28;2.10;;;14.40;99.90;;;;;;5018767;28;20123;-89
2023/03/31 12:19:29;;;;;;;4.50;1.80;;;14.80;99.90;;;;;;5002303;28;21000;-88
2023/03/31 12:22:16;;;;;;;5.53;2.47;;;14.50;99.90;;;;;;5001126;28;20041;-89
2023/03/31 12:24:42;;;;;;;6.70;2.40;;;14.60;99.90;;;;;;5019794;28;20144;-89
2023/03/31 12:27:26;;;;;;;6.18;2.40;;;14.60;99.90;;;;;;5005004;28;20120;-88
2023/03/31 12:30:11;;;;;;;6.20;2.33;;;14.60;99.90;;;;;;5001148;28;20118;-89
2023/03/31 12:32:41;;;;;;;8.85;2.65;;;14.30;99.90;;;;;;5001601;28;20639;-89
2023/03/31 12:35:45;;;;;;;7.30;2.47;;;14.40;99.90;;;;;;5015899;28;20162;-89
2023/03/31 12:38:40;;;;;;;6.25;2.50;;;14.30;99.90;;;;;;4941272;28;20113;-89
2023/03/31 12:41:13;;;;;;;8.98;2.60;;;14.40;99.90;;;;;;5001372;28;20053;-88
2023/03/31 12:43:57;;;;;;;7.07;2.90;;;14.70;99.90;;;;;;5003623;28;20045;-89
2023/03/31 12:46:51;;;;;;;7.85;2.85;;;14.90;99.90;;;;;;5001583;28;20045;-89
2023/03/31 12:49:26;;;;;;;6.53;2.58;;;15.30;99.90;;;;;;5002592;28;20087;-89
2023/03/31 12:52:36;;;;;;;7.03;2.83;;;15.20;99.90;;;;;;4996215;28;20034;-89
2023/03/31 12:55:23;;;;;;;10.27;2.90;;;15.50;99.90;;;;;;4948189;28;20894;-89
2023/03/31 12:57:49;;;;;;;8.48;2.85;;;15.60;99.90;;;;;;5032750;28;20076;-89
2023/03/31 13:00:22;;;;;;;6.22;3.05;;;15.60;99.90;;;;;;5000349;28;20044;-89
2023/03/31 13:02:52;;;;;;;9.73;3.05;;;15.60;99.90;;;;;;5029274;28;20037;-89
2023/03/31 13:05:50;;;;;;;9.43;2.78;;;15.40;99.90;;;;;;5000961;28;20418;-89
2023/03/31 13:08:48;;;;;;;7.20;3.00;;;15.20;99.90;;;;;;4967016;28;20045;-89
2023/03/31 13:11:15;;;;;;;7.38;2.80;;;15.30;99.90;;;;;;4997866;28;20069;-89